createdAt,value
2023-03-04T00:00:33.629Z,5.80
2023-03-04T00:01:33.808Z,5.79
2023-03-04T00:02:33.948Z,5.79
2023-03-04T00:03:34.129Z,5.76
2023-03-04T00:04:34.302Z,5.72
2023-03-04T00:05:34.468Z,5.68
2023-03-04T00:06:34.610Z,5.68
2023-03-04T00:07:34.833Z,5.65
2023-03-04T00:08:35.006Z,5.65
2023-03-04T00:09:35.158Z,5.65
2023-03-04T00:10:35.374Z,5.62
2023-03-04T00:11:35.509Z,5.64
2023-03-04T00:12:35.670Z,5.64
2023-03-04T00:13:35.861Z,5.62
2023-03-04T00:14:36.022Z,5.65
2023-03-04T00:15:36.194Z,5.64
2023-03-04T00:16:36.393Z,5.61
2023-03-04T00:17:36.527Z,5.57
2023-03-04T00:18:36.708Z,5.56
2023-03-04T00:19:36.865Z,5.59
2023-03-04T00:20:37.017Z,5.59
2023-03-04T00:21:37.195Z,5.61
2023-03-04T00:22:37.347Z,5.62
2023-03-04T00:23:37.527Z,5.65
2023-03-04T00:24:37.687Z,5.69
2023-03-04T00:25:37.881Z,5.69
2023-03-04T00:26:38.124Z,5.73
2023-03-04T00:27:38.240Z,5.76
2023-03-04T00:28:38.403Z,5.83
2023-03-04T00:29:38.636Z,5.90
2023-03-04T00:30:38.720Z,5.93
2023-03-04T00:31:38.904Z,5.99
2023-03-04T00:32:39.160Z,6.05
2023-03-04T00:33:39.246Z,6.09
2023-03-04T00:34:39.417Z,6.14
2023-03-04T00:35:39.622Z,6.19
2023-03-04T00:36:39.743Z,6.24
2023-03-04T00:37:39.923Z,6.30
2023-03-04T00:38:40.084Z,6.31
2023-03-04T00:39:40.258Z,6.36
2023-03-04T00:40:40.427Z,6.38
2023-03-04T00:41:40.586Z,6.42
2023-03-04T00:42:40.741Z,6.45
2023-03-04T00:43:40.916Z,6.49
2023-03-04T00:44:41.093Z,6.54
2023-03-04T00:45:41.273Z,6.52
2023-03-04T00:46:41.392Z,6.56
2023-03-04T00:47:41.618Z,6.62
2023-03-04T00:48:41.733Z,6.63
2023-03-04T00:49:41.909Z,6.67
2023-03-04T00:50:42.094Z,6.69
2023-03-04T00:51:42.242Z,6.70
2023-03-04T00:52:42.420Z,6.74
2023-03-04T00:53:42.584Z,6.75
2023-03-04T00:54:42.765Z,6.77
2023-03-04T00:55:42.944Z,6.77
2023-03-04T00:56:43.102Z,6.77
2023-03-04T00:57:43.288Z,6.75
2023-03-04T00:58:43.451Z,6.79
2023-03-04T00:59:43.613Z,6.82
2023-03-04T01:00:43.772Z,6.85
2023-03-04T01:01:43.981Z,6.87
2023-03-04T01:02:44.243Z,6.89
2023-03-04T01:03:44.344Z,6.89
2023-03-04T01:04:44.472Z,6.89
2023-03-04T01:05:44.677Z,6.92
2023-03-04T01:06:44.832Z,6.96
2023-03-04T01:07:45.028Z,6.99
2023-03-04T01:08:45.286Z,6.99
2023-03-04T01:09:45.357Z,7.00
2023-03-04T01:10:45.526Z,6.99
2023-03-04T01:11:45.755Z,7.00
2023-03-04T01:12:45.836Z,7.02
2023-03-04T01:13:46.018Z,6.97
2023-03-04T01:14:46.235Z,6.95
2023-03-04T01:15:46.359Z,6.93
2023-03-04T01:16:46.641Z,6.97
2023-03-04T01:17:46.744Z,6.99
2023-03-04T01:18:47.040Z,6.97
2023-03-04T01:19:47.108Z,6.99
2023-03-04T01:20:47.290Z,6.99
2023-03-04T01:21:47.535Z,6.99
2023-03-04T01:22:47.637Z,6.99
2023-03-04T01:23:47.845Z,6.97
2023-03-04T01:24:48.039Z,6.99
2023-03-04T01:25:48.178Z,7.00
2023-03-04T01:26:48.355Z,7.03
2023-03-04T01:27:48.564Z,7.05
2023-03-04T01:28:48.726Z,7.05
2023-03-04T01:29:48.866Z,7.05
2023-03-04T01:30:49.116Z,7.05
2023-03-04T01:31:49.226Z,7.06
2023-03-04T01:32:49.397Z,7.10
2023-03-04T01:33:49.607Z,7.10
2023-03-04T01:34:49.826Z,7.14
2023-03-04T01:35:49.971Z,7.18
2023-03-04T01:36:50.102Z,7.18
2023-03-04T01:37:50.330Z,7.20
2023-03-04T01:38:50.488Z,7.18
2023-03-04T01:39:50.670Z,7.23
2023-03-04T01:40:50.881Z,7.21
2023-03-04T01:41:51.015Z,7.21
2023-03-04T01:42:51.226Z,7.23
2023-03-04T01:43:51.372Z,7.21
2023-03-04T01:44:51.513Z,7.24
2023-03-04T01:45:51.773Z,7.23
2023-03-04T01:46:51.877Z,7.23
2023-03-04T01:47:52.067Z,7.24
2023-03-04T01:48:52.258Z,7.23
2023-03-04T01:49:52.404Z,7.21
2023-03-04T01:50:52.576Z,7.20
2023-03-04T01:51:52.766Z,7.23
2023-03-04T01:52:52.945Z,7.23
2023-03-04T01:53:53.172Z,7.24
2023-03-04T01:54:53.316Z,7.29
2023-03-04T01:55:53.502Z,7.29
2023-03-04T01:56:53.748Z,7.31
2023-03-04T01:57:53.853Z,7.33
2023-03-04T01:58:54.029Z,7.35
2023-03-04T01:59:54.261Z,7.36
2023-03-04T02:00:54.364Z,7.39
2023-03-04T02:01:54.622Z,7.42
2023-03-04T02:02:54.713Z,7.42
2023-03-04T02:03:54.940Z,7.40
2023-03-04T02:04:55.045Z,7.42
2023-03-04T02:05:55.233Z,7.45
2023-03-04T02:06:55.405Z,7.42
2023-03-04T02:07:55.598Z,7.42
2023-03-04T02:08:55.792Z,7.42
2023-03-04T02:09:55.942Z,7.43
2023-03-04T02:10:56.124Z,7.45
2023-03-04T02:11:56.319Z,7.47
2023-03-04T02:12:56.484Z,7.45
2023-03-04T02:13:56.684Z,7.50
2023-03-04T02:14:56.829Z,7.48
2023-03-04T02:15:57.052Z,7.48
2023-03-04T02:16:57.201Z,7.50
2023-03-04T02:17:57.386Z,7.50
2023-03-04T02:18:57.590Z,7.51
2023-03-04T02:19:57.741Z,7.58
2023-03-04T02:20:57.919Z,7.58
2023-03-04T02:21:58.093Z,7.61
2023-03-04T02:22:58.332Z,7.66
2023-03-04T02:23:58.473Z,7.69
2023-03-04T02:24:58.624Z,7.70
2023-03-04T02:25:58.863Z,7.70
2023-03-04T02:26:58.969Z,7.70
2023-03-04T02:27:59.152Z,7.70
2023-03-04T02:28:59.399Z,7.72
2023-03-04T02:29:59.505Z,7.76
2023-03-04T02:30:59.719Z,7.77
2023-03-04T02:31:59.934Z,7.79
2023-03-04T02:33:00.046Z,7.79
2023-03-04T02:34:00.286Z,7.76
2023-03-04T02:35:00.416Z,7.79
2023-03-04T02:36:00.583Z,7.79
2023-03-04T02:37:00.763Z,7.80
2023-03-04T02:38:00.942Z,7.82
2023-03-04T02:39:01.133Z,7.83
2023-03-04T02:40:01.311Z,7.83
2023-03-04T02:41:01.474Z,7.82
2023-03-04T02:42:01.680Z,7.82
2023-03-04T02:43:01.923Z,7.85
2023-03-04T02:44:02.103Z,7.85
2023-03-04T02:45:02.192Z,7.90
2023-03-04T02:46:02.386Z,7.93
2023-03-04T02:47:02.604Z,7.93
2023-03-04T02:48:02.752Z,7.94
2023-03-04T02:49:02.950Z,7.95
2023-03-04T02:50:03.099Z,7.97
2023-03-04T02:51:03.295Z,7.98
2023-03-04T02:52:03.462Z,8.00
2023-03-04T02:53:03.634Z,8.01
2023-03-04T02:54:03.834Z,8.03
2023-03-04T02:55:03.984Z,8.03
2023-03-04T02:56:04.163Z,8.05
2023-03-04T02:57:04.346Z,8.06
2023-03-04T02:58:04.533Z,8.06
2023-03-04T02:59:04.727Z,8.06
2023-03-04T03:00:04.890Z,8.08
2023-03-04T03:01:05.042Z,8.06
2023-03-04T03:02:05.313Z,8.03
2023-03-04T03:03:05.488Z,8.05
2023-03-04T03:04:05.571Z,8.06
2023-03-04T03:05:05.714Z,8.08
2023-03-04T03:06:05.972Z,8.01
2023-03-04T03:07:06.074Z,8.05
2023-03-04T03:08:06.278Z,8.06
2023-03-04T03:09:06.441Z,8.08
2023-03-04T03:10:06.583Z,8.08
2023-03-04T03:11:08.865Z,8.10
2023-03-04T03:12:07.024Z,8.12
2023-03-04T03:13:07.154Z,8.18
2023-03-04T03:14:07.303Z,8.18
2023-03-04T03:15:07.484Z,8.19
2023-03-04T03:16:07.738Z,8.19
2023-03-04T03:17:07.852Z,8.20
2023-03-04T03:18:08.037Z,8.24
2023-03-04T03:19:08.233Z,8.20
2023-03-04T03:20:08.379Z,8.23
2023-03-04T03:21:08.561Z,8.24
2023-03-04T03:22:08.739Z,8.24
2023-03-04T03:23:08.998Z,8.24
2023-03-04T03:24:09.118Z,8.20
2023-03-04T03:25:09.311Z,8.23
2023-03-04T03:26:09.520Z,8.26
2023-03-04T03:27:09.654Z,8.26
2023-03-04T03:28:09.842Z,8.27
2023-03-04T03:29:10.054Z,8.27
2023-03-04T03:30:10.187Z,8.27
2023-03-04T03:31:10.441Z,8.30
2023-03-04T03:32:10.597Z,8.28
2023-03-04T03:33:10.745Z,8.27
2023-03-04T03:34:10.934Z,8.30
2023-03-04T03:35:11.084Z,8.31
2023-03-04T03:36:11.285Z,8.33
2023-03-04T03:37:11.456Z,8.30
2023-03-04T03:38:11.616Z,8.33
2023-03-04T03:39:11.816Z,8.36
2023-03-04T03:40:11.958Z,8.37
2023-03-04T03:41:12.149Z,8.34
2023-03-04T03:42:12.334Z,8.34
2023-03-04T03:43:12.486Z,8.36
2023-03-04T03:44:12.675Z,8.36
2023-03-04T03:45:12.932Z,8.36
2023-03-04T03:46:12.989Z,8.38
2023-03-04T03:47:13.172Z,8.41
2023-03-04T03:48:13.413Z,8.41
2023-03-04T03:49:13.524Z,8.42
2023-03-04T03:50:13.684Z,8.45
2023-03-04T03:51:13.920Z,8.44
2023-03-04T03:52:14.074Z,8.46
2023-03-04T03:53:14.218Z,8.44
2023-03-04T03:54:14.430Z,8.45
2023-03-04T03:55:14.586Z,8.45
2023-03-04T03:56:14.761Z,8.46
2023-03-04T03:57:14.946Z,8.42
2023-03-04T03:58:15.098Z,8.45
2023-03-04T03:59:15.315Z,8.46
2023-03-04T04:00:15.439Z,8.46
2023-03-04T04:01:15.645Z,8.48
2023-03-04T04:02:15.886Z,8.48
2023-03-04T04:03:15.961Z,8.51
2023-03-04T04:04:16.222Z,8.53
2023-03-04T04:05:16.323Z,8.52
2023-03-04T04:06:16.509Z,8.51
2023-03-04T04:07:16.728Z,8.52
2023-03-04T04:08:16.866Z,8.53
2023-03-04T04:09:17.067Z,8.56
2023-03-04T04:10:17.246Z,8.58
2023-03-04T04:11:17.374Z,8.56
2023-03-04T04:12:17.554Z,8.52
2023-03-04T04:13:17.734Z,8.53
2023-03-04T04:14:17.960Z,8.56
2023-03-04T04:15:18.077Z,8.55
2023-03-04T04:16:18.280Z,8.53
2023-03-04T04:17:18.444Z,8.55
2023-03-04T04:18:18.624Z,8.56
2023-03-04T04:19:18.827Z,8.58
2023-03-04T04:20:18.987Z,8.61
2023-03-04T04:21:19.165Z,8.61
2023-03-04T04:22:19.341Z,8.61
2023-03-04T04:23:19.561Z,8.63
2023-03-04T04:24:19.717Z,8.63
2023-03-04T04:25:19.866Z,8.63
2023-03-04T04:26:20.105Z,8.63
2023-03-04T04:27:20.231Z,8.60
2023-03-04T04:28:20.411Z,8.60
2023-03-04T04:29:20.676Z,8.61
2023-03-04T04:30:20.769Z,8.64
2023-03-04T04:31:20.978Z,8.63
2023-03-04T04:32:21.234Z,8.66
2023-03-04T04:33:21.280Z,8.66
2023-03-04T04:34:21.481Z,8.70
2023-03-04T04:35:21.680Z,8.74
2023-03-04T04:36:21.798Z,8.71
2023-03-04T04:37:21.980Z,8.70
2023-03-04T04:38:22.167Z,8.69
2023-03-04T04:39:22.368Z,8.69
2023-03-04T04:40:22.507Z,8.70
2023-03-04T04:41:22.681Z,8.71
2023-03-04T04:42:22.857Z,8.70
2023-03-04T04:43:23.057Z,8.71
2023-03-04T04:44:23.354Z,8.73
2023-03-04T04:45:23.418Z,8.73
2023-03-04T04:46:23.682Z,8.74
2023-03-04T04:47:23.807Z,8.73
2023-03-04T04:48:23.948Z,8.74
2023-03-04T04:49:24.158Z,8.74
2023-03-04T04:50:24.379Z,8.76
2023-03-04T04:51:24.484Z,8.78
2023-03-04T04:52:24.655Z,8.81
2023-03-04T04:53:24.934Z,8.82
2023-03-04T04:54:25.024Z,8.82
2023-03-04T04:55:25.204Z,8.79
2023-03-04T04:56:25.442Z,8.85
2023-03-04T04:57:25.562Z,8.87
2023-03-04T04:58:25.737Z,8.87
2023-03-04T04:59:25.957Z,8.87
2023-03-04T05:00:26.095Z,8.89
2023-03-04T05:01:26.326Z,8.91
2023-03-04T05:02:26.448Z,8.92
2023-03-04T05:03:26.699Z,8.94
2023-03-04T05:04:26.806Z,8.94
2023-03-04T05:05:26.967Z,8.92
2023-03-04T05:06:27.157Z,8.95
2023-03-04T05:07:27.304Z,8.97
2023-03-04T05:08:27.478Z,8.95
2023-03-04T05:09:27.694Z,8.97
2023-03-04T05:10:27.837Z,8.94
2023-03-04T05:11:28.029Z,8.94
2023-03-04T05:12:28.211Z,8.94
2023-03-04T05:13:28.388Z,8.92
2023-03-04T05:14:28.586Z,8.89
2023-03-04T05:15:28.812Z,8.91
2023-03-04T05:16:28.907Z,8.92
2023-03-04T05:17:29.115Z,8.94
2023-03-04T05:18:29.250Z,8.94
2023-03-04T05:19:29.443Z,8.95
2023-03-04T05:20:29.638Z,8.97
2023-03-04T05:21:29.733Z,8.97
2023-03-04T05:22:29.926Z,8.97
2023-03-04T05:23:30.109Z,8.99
2023-03-04T05:24:30.248Z,8.97
2023-03-04T05:25:30.433Z,9.00
2023-03-04T05:26:30.615Z,9.03
2023-03-04T05:27:30.800Z,9.06
2023-03-04T05:28:30.976Z,9.04
2023-03-04T05:29:31.178Z,9.02
2023-03-04T05:30:31.318Z,9.02
2023-03-04T05:31:31.515Z,9.00
2023-03-04T05:32:31.705Z,9.00
2023-03-04T05:33:31.848Z,9.04
2023-03-04T05:34:32.049Z,9.04
2023-03-04T05:35:32.200Z,9.06
2023-03-04T05:36:32.415Z,9.06
2023-03-04T05:37:32.549Z,9.06
2023-03-04T05:38:32.735Z,9.08
2023-03-04T05:39:33.013Z,9.10
2023-03-04T05:40:33.048Z,9.08
2023-03-04T05:41:33.248Z,9.08
2023-03-04T05:42:33.470Z,9.06
2023-03-04T05:43:33.560Z,9.06
2023-03-04T05:44:33.742Z,9.06
2023-03-04T05:45:33.944Z,9.08
2023-03-04T05:46:34.125Z,9.04
2023-03-04T05:47:34.257Z,9.06
2023-03-04T05:48:34.448Z,9.04
2023-03-04T05:49:34.622Z,9.04
2023-03-04T05:50:34.798Z,9.08
2023-03-04T05:51:34.969Z,9.06
2023-03-04T05:52:35.119Z,9.08
2023-03-04T05:53:35.318Z,9.06
2023-03-04T05:54:35.486Z,9.10
2023-03-04T05:55:35.664Z,9.13
2023-03-04T05:56:35.847Z,9.16
2023-03-04T05:57:36.020Z,9.16
2023-03-04T05:58:36.198Z,9.14
2023-03-04T05:59:36.391Z,9.16
2023-03-04T06:00:36.566Z,9.18
2023-03-04T06:01:36.740Z,9.19
2023-03-04T06:02:36.935Z,9.19
2023-03-04T06:03:37.121Z,9.19
2023-03-04T06:04:37.220Z,9.21
2023-03-04T06:05:37.523Z,9.21
2023-03-04T06:06:37.594Z,9.22
2023-03-04T06:07:37.750Z,9.19
2023-03-04T06:08:37.898Z,9.21
2023-03-04T06:09:38.087Z,9.21
2023-03-04T06:10:38.280Z,9.23
2023-03-04T06:11:38.428Z,9.26
2023-03-04T06:12:38.618Z,9.26
2023-03-04T06:13:38.800Z,9.28
2023-03-04T06:14:38.947Z,9.29
2023-03-04T06:15:39.161Z,9.32
2023-03-04T06:16:39.308Z,9.34
2023-03-04T06:17:41.863Z,9.32
2023-03-04T06:18:39.694Z,9.31
2023-03-04T06:19:39.845Z,9.29
2023-03-04T06:20:40.128Z,9.26
2023-03-04T06:21:40.200Z,9.26
2023-03-04T06:22:40.366Z,9.31
2023-03-04T06:23:40.614Z,9.31
2023-03-04T06:24:40.706Z,9.32
2023-03-04T06:25:40.896Z,9.29
2023-03-04T06:26:41.118Z,9.31
2023-03-04T06:27:41.205Z,9.31
2023-03-04T06:28:41.379Z,9.34
2023-03-04T06:29:41.626Z,9.32
2023-03-04T06:30:41.757Z,9.32
2023-03-04T06:31:41.992Z,9.31
2023-03-04T06:32:42.093Z,9.34
2023-03-04T06:33:42.274Z,9.37
2023-03-04T06:34:42.456Z,9.39
2023-03-04T06:35:42.680Z,9.46
2023-03-04T06:36:42.845Z,9.47
2023-03-04T06:37:42.984Z,9.47
2023-03-04T06:38:43.153Z,9.47
2023-03-04T06:39:43.440Z,9.48
2023-03-04T06:40:43.516Z,9.51
2023-03-04T06:41:43.683Z,9.55
2023-03-04T06:42:43.926Z,9.50
2023-03-04T06:43:44.025Z,9.51
2023-03-04T06:44:44.183Z,9.56
2023-03-04T06:45:44.362Z,9.59
2023-03-04T06:46:44.605Z,9.64
2023-03-04T06:47:44.716Z,9.65
2023-03-04T06:48:44.894Z,9.72
2023-03-04T06:49:45.059Z,9.73
2023-03-04T06:50:45.272Z,9.79
2023-03-04T06:51:45.447Z,9.84
2023-03-04T06:52:45.633Z,9.86
2023-03-04T06:53:45.802Z,9.89
2023-03-04T06:54:45.965Z,9.94
2023-03-04T06:55:46.278Z,9.97
2023-03-04T06:56:46.310Z,10.01
2023-03-04T06:57:48.512Z,10.07
2023-03-04T06:58:46.771Z,10.07
2023-03-04T06:59:46.831Z,10.09
2023-03-04T07:00:47.049Z,10.09
2023-03-04T07:01:47.231Z,10.05
2023-03-04T07:02:47.377Z,10.04
2023-03-04T07:03:47.622Z,10.05
2023-03-04T07:04:47.759Z,10.10
2023-03-04T07:05:47.932Z,10.16
2023-03-04T07:06:48.091Z,10.17
2023-03-04T07:07:48.279Z,10.23
2023-03-04T07:08:48.437Z,10.28
2023-03-04T07:09:48.622Z,10.28
2023-03-04T07:10:48.823Z,10.30
2023-03-04T07:11:48.990Z,10.31
2023-03-04T07:12:49.150Z,10.35
2023-03-04T07:13:49.320Z,10.35
2023-03-04T07:14:49.511Z,10.38
2023-03-04T07:15:49.663Z,10.37
2023-03-04T07:16:49.828Z,10.38
2023-03-04T07:17:50.021Z,10.44
2023-03-04T07:18:50.200Z,10.49
2023-03-04T07:19:50.461Z,10.59
2023-03-04T07:20:50.568Z,10.67
2023-03-04T07:21:50.739Z,10.74
2023-03-04T07:22:50.988Z,10.67
2023-03-04T07:23:51.109Z,10.60
2023-03-04T07:24:51.295Z,10.54
2023-03-04T07:25:51.475Z,10.48
2023-03-04T07:26:51.637Z,10.41
2023-03-04T07:27:51.824Z,10.35
2023-03-04T07:28:52.020Z,10.34
2023-03-04T07:29:52.219Z,10.34
2023-03-04T07:30:52.406Z,10.38
2023-03-04T07:31:53.839Z,10.42
2023-03-04T07:32:52.841Z,10.48
2023-03-04T07:33:52.956Z,10.46
2023-03-04T07:34:53.111Z,10.46
2023-03-04T07:35:53.442Z,10.40
2023-03-04T07:36:53.462Z,10.34
2023-03-04T07:37:53.629Z,10.26
2023-03-04T07:38:53.885Z,10.26
2023-03-04T07:39:53.972Z,10.23
2023-03-04T07:40:54.186Z,10.22
2023-03-04T07:41:54.388Z,10.20
2023-03-04T07:42:54.510Z,10.22
2023-03-04T07:43:54.668Z,10.25
2023-03-04T07:44:54.834Z,10.31
2023-03-04T07:45:55.132Z,10.42
2023-03-04T07:46:55.168Z,10.49
2023-03-04T07:47:55.319Z,10.59
2023-03-04T07:48:55.519Z,10.68
2023-03-04T07:49:55.681Z,10.72
2023-03-04T07:50:55.894Z,10.74
2023-03-04T07:51:56.033Z,10.74
2023-03-04T07:52:56.219Z,10.72
2023-03-04T07:53:56.394Z,10.71
2023-03-04T07:54:56.616Z,10.69
2023-03-04T07:55:56.720Z,10.63
2023-03-04T07:56:56.900Z,10.63
2023-03-04T07:57:57.084Z,10.56
2023-03-04T07:58:57.245Z,10.53
2023-03-04T07:59:57.412Z,10.46
2023-03-04T08:00:57.639Z,10.40
2023-03-04T08:01:57.834Z,10.41
2023-03-04T08:02:57.960Z,10.38
2023-03-04T08:03:58.190Z,10.40
2023-03-04T08:04:58.386Z,10.38
2023-03-04T08:05:58.518Z,10.44
2023-03-04T08:06:58.664Z,10.48
2023-03-04T08:07:58.886Z,10.46
2023-03-04T08:08:58.987Z,10.42
2023-03-04T08:09:59.146Z,10.46
2023-03-04T08:10:59.371Z,10.51
2023-03-04T08:11:59.477Z,10.51
2023-03-04T08:12:59.648Z,10.51
2023-03-04T08:13:59.811Z,10.53
2023-03-04T08:15:00.041Z,10.56
2023-03-04T08:16:00.239Z,10.57
2023-03-04T08:17:00.306Z,10.60
2023-03-04T08:18:00.497Z,10.59
2023-03-04T08:19:00.691Z,10.61
2023-03-04T08:20:00.866Z,10.61
2023-03-04T08:21:01.076Z,10.64
2023-03-04T08:22:01.237Z,10.67
2023-03-04T08:23:01.468Z,10.68
2023-03-04T08:24:01.642Z,10.63
2023-03-04T08:25:01.766Z,10.64
2023-03-04T08:26:01.934Z,10.68
2023-03-04T08:27:02.105Z,10.68
2023-03-04T08:28:02.301Z,10.69
2023-03-04T08:29:02.485Z,10.72
2023-03-04T08:30:02.655Z,10.76
2023-03-04T08:31:02.877Z,10.81
2023-03-04T08:32:03.116Z,10.86
2023-03-04T08:33:03.216Z,10.86
2023-03-04T08:34:03.355Z,10.94
2023-03-04T08:35:03.524Z,11.00
2023-03-04T08:36:03.699Z,11.02
2023-03-04T08:37:03.864Z,11.02
2023-03-04T08:38:04.065Z,11.12
2023-03-04T08:39:04.206Z,11.18
2023-03-04T08:40:04.381Z,11.23
2023-03-04T08:41:04.562Z,11.26
2023-03-04T08:42:04.725Z,11.25
2023-03-04T08:43:04.920Z,11.26
2023-03-04T08:44:05.073Z,11.29
2023-03-04T08:45:05.293Z,11.25
2023-03-04T08:46:05.503Z,11.22
2023-03-04T08:47:05.645Z,11.19
2023-03-04T08:48:05.856Z,11.22
2023-03-04T08:49:05.964Z,11.19
2023-03-04T08:50:06.129Z,11.18
2023-03-04T08:51:06.354Z,11.17
2023-03-04T08:52:06.502Z,11.15
2023-03-04T08:53:06.685Z,11.15
2023-03-04T08:54:06.844Z,11.11
2023-03-04T08:55:07.036Z,11.07
2023-03-04T08:56:07.200Z,11.07
2023-03-04T08:57:07.373Z,11.04
2023-03-04T08:58:07.526Z,11.05
2023-03-04T08:59:07.724Z,11.08
2023-03-04T09:00:07.916Z,11.08
2023-03-04T09:01:08.093Z,11.08
2023-03-04T09:02:08.256Z,11.05
2023-03-04T09:03:08.444Z,11.04
2023-03-04T09:04:08.648Z,11.02
2023-03-04T09:05:08.799Z,10.96
2023-03-04T09:06:08.963Z,10.96
2023-03-04T09:07:09.135Z,10.92
2023-03-04T09:08:09.282Z,10.90
2023-03-04T09:09:09.487Z,10.90
2023-03-04T09:10:09.624Z,10.90
2023-03-04T09:11:09.814Z,10.86
2023-03-04T09:12:09.976Z,10.86
2023-03-04T09:13:10.224Z,10.81
2023-03-04T09:14:10.336Z,10.84
2023-03-04T09:15:12.008Z,10.81
2023-03-04T09:16:10.722Z,10.82
2023-03-04T09:17:10.823Z,10.81
2023-03-04T09:18:11.014Z,10.79
2023-03-04T09:19:11.219Z,10.79
2023-03-04T09:20:11.365Z,10.78
2023-03-04T09:21:11.531Z,10.76
2023-03-04T09:22:11.709Z,10.76
2023-03-04T09:23:11.894Z,10.74
2023-03-04T09:24:12.091Z,10.71
2023-03-04T09:25:13.261Z,10.71
2023-03-04T09:26:12.433Z,10.74
2023-03-04T09:27:12.603Z,10.75
2023-03-04T09:28:12.818Z,10.75
2023-03-04T09:29:12.938Z,10.72
2023-03-04T09:30:13.129Z,10.74
2023-03-04T09:31:13.381Z,10.75
2023-03-04T09:32:13.510Z,10.78
2023-03-04T09:33:13.629Z,10.84
2023-03-04T09:34:13.775Z,10.90
2023-03-04T09:35:13.971Z,10.89
2023-03-04T09:36:14.192Z,10.97
2023-03-04T09:37:14.297Z,11.04
2023-03-04T09:38:14.444Z,11.04
2023-03-04T09:39:14.633Z,11.14
2023-03-04T09:40:14.784Z,11.14
2023-03-04T09:41:15.011Z,11.22
2023-03-04T09:42:15.165Z,11.27
2023-03-04T09:43:15.333Z,11.32
2023-03-04T09:44:15.550Z,11.35
2023-03-04T09:45:15.670Z,11.37
2023-03-04T09:46:15.849Z,11.41
2023-03-04T09:47:16.032Z,11.44
2023-03-04T09:48:16.218Z,11.45
2023-03-04T09:49:16.342Z,11.51
2023-03-04T09:50:16.533Z,11.54
2023-03-04T09:51:16.763Z,11.59
2023-03-04T09:52:16.841Z,11.65
2023-03-04T09:53:17.031Z,11.66
2023-03-04T09:54:17.261Z,11.68
2023-03-04T09:55:17.413Z,11.68
2023-03-04T09:56:17.619Z,11.65
2023-03-04T09:57:17.750Z,11.66
2023-03-04T09:58:17.913Z,11.60
2023-03-04T09:59:18.100Z,11.60
2023-03-04T10:00:18.301Z,11.62
2023-03-04T10:01:18.509Z,11.59
2023-03-04T10:02:18.649Z,11.65
2023-03-04T10:03:18.913Z,11.66
2023-03-04T10:04:19.041Z,11.68
2023-03-04T10:05:19.249Z,11.72
2023-03-04T10:06:19.370Z,11.77
2023-03-04T10:07:19.551Z,11.81
2023-03-04T10:08:19.754Z,11.84
2023-03-04T10:09:19.919Z,11.84
2023-03-04T10:10:20.147Z,11.73
2023-03-04T10:11:20.301Z,11.73
2023-03-04T10:12:20.462Z,11.69
2023-03-04T10:13:20.641Z,11.65
2023-03-04T10:14:20.790Z,11.62
2023-03-04T10:15:21.040Z,11.60
2023-03-04T10:16:21.213Z,11.57
2023-03-04T10:17:21.336Z,11.55
2023-03-04T10:18:21.526Z,11.54
2023-03-04T10:19:21.663Z,11.50
2023-03-04T10:20:21.806Z,11.48
2023-03-04T10:21:22.024Z,11.45
2023-03-04T10:22:22.187Z,11.45
2023-03-04T10:23:22.367Z,11.45
2023-03-04T10:24:22.560Z,11.44
2023-03-04T10:25:22.748Z,11.44
2023-03-04T10:26:22.916Z,11.40
2023-03-04T10:27:23.077Z,11.41
2023-03-04T10:28:23.304Z,11.45
2023-03-04T10:29:23.461Z,11.51
2023-03-04T10:30:23.646Z,11.59
2023-03-04T10:31:23.908Z,11.66
2023-03-04T10:32:24.003Z,11.73
2023-03-04T10:33:24.171Z,11.72
2023-03-04T10:34:24.371Z,11.73
2023-03-04T10:35:24.582Z,11.69
2023-03-04T10:36:24.718Z,11.66
2023-03-04T10:37:24.907Z,11.63
2023-03-04T10:38:25.037Z,11.59
2023-03-04T10:39:25.226Z,11.54
2023-03-04T10:40:25.399Z,11.51
2023-03-04T10:41:25.590Z,11.47
2023-03-04T10:42:25.891Z,11.43
2023-03-04T10:43:25.930Z,11.43
2023-03-04T10:44:26.117Z,11.41
2023-03-04T10:45:26.335Z,11.37
2023-03-04T10:46:26.504Z,11.36
2023-03-04T10:47:26.735Z,11.40
2023-03-04T10:48:26.841Z,11.36
2023-03-04T10:49:26.995Z,11.37
2023-03-04T10:50:27.232Z,11.43
2023-03-04T10:51:27.380Z,11.48
2023-03-04T10:52:27.558Z,11.50
2023-03-04T10:53:27.763Z,11.52
2023-03-04T10:54:27.901Z,11.57
2023-03-04T10:55:28.106Z,11.59
2023-03-04T10:56:28.256Z,11.62
2023-03-04T10:57:28.411Z,11.62
2023-03-04T10:58:28.584Z,11.65
2023-03-04T10:59:28.778Z,11.70
2023-03-04T11:00:28.952Z,11.80
2023-03-04T11:01:29.203Z,11.84
2023-03-04T11:02:29.288Z,11.87
2023-03-04T11:03:30.312Z,11.90
2023-03-04T11:04:29.637Z,11.90
2023-03-04T11:05:29.808Z,11.95
2023-03-04T11:06:30.062Z,11.91
2023-03-04T11:07:32.668Z,11.90
2023-03-04T11:08:30.382Z,11.90
2023-03-04T11:09:30.519Z,11.94
2023-03-04T11:10:30.708Z,11.99
2023-03-04T11:11:30.936Z,12.04
2023-03-04T11:12:31.036Z,12.03
2023-03-04T11:13:31.245Z,12.02
2023-03-04T11:14:31.418Z,12.06
2023-03-04T11:15:31.576Z,12.06
2023-03-04T11:16:31.782Z,12.09
2023-03-04T11:17:31.903Z,12.10
2023-03-04T11:18:32.107Z,12.15
2023-03-04T11:19:32.253Z,12.12
2023-03-04T11:20:32.422Z,12.10
2023-03-04T11:21:32.642Z,12.07
2023-03-04T11:22:32.786Z,12.09
2023-03-04T11:23:32.965Z,12.06
2023-03-04T11:24:33.142Z,12.12
2023-03-04T11:25:33.329Z,12.17
2023-03-04T11:26:33.491Z,12.15
2023-03-04T11:27:33.703Z,12.20
2023-03-04T11:28:33.845Z,12.21
2023-03-04T11:29:34.042Z,12.21
2023-03-04T11:30:34.269Z,12.21
2023-03-04T11:31:34.429Z,12.15
2023-03-04T11:32:34.640Z,12.10
2023-03-04T11:33:34.730Z,12.07
2023-03-04T11:34:34.918Z,12.06
2023-03-04T11:35:35.270Z,12.04
2023-03-04T11:36:35.282Z,12.03
2023-03-04T11:37:35.436Z,12.04
2023-03-04T11:38:35.626Z,12.00
2023-03-04T11:39:35.771Z,12.00
2023-03-04T11:40:35.958Z,11.99
2023-03-04T11:41:36.151Z,11.95
2023-03-04T11:42:36.334Z,11.94
2023-03-04T11:43:36.518Z,11.86
2023-03-04T11:44:36.709Z,11.81
2023-03-04T11:45:36.888Z,11.75
2023-03-04T11:46:37.118Z,11.69
2023-03-04T11:47:37.213Z,11.68
2023-03-04T11:48:37.388Z,11.69
2023-03-04T11:49:37.590Z,11.68
2023-03-04T11:50:37.834Z,11.66
2023-03-04T11:51:37.970Z,11.68
2023-03-04T11:52:38.120Z,11.68
2023-03-04T11:53:38.271Z,11.70
2023-03-04T11:54:38.462Z,11.68
2023-03-04T11:55:38.619Z,11.66
2023-03-04T11:56:38.819Z,11.66
2023-03-04T11:57:38.980Z,11.65
2023-03-04T11:58:39.163Z,11.66
2023-03-04T11:59:39.390Z,11.65
2023-03-04T12:00:39.509Z,11.70
2023-03-04T12:01:39.714Z,11.72
2023-03-04T12:02:39.918Z,11.69
2023-03-04T12:03:40.065Z,11.70
2023-03-04T12:04:40.262Z,11.69
2023-03-04T12:05:40.431Z,11.68
2023-03-04T12:06:40.557Z,11.66
2023-03-04T12:07:40.712Z,11.68
2023-03-04T12:08:40.921Z,11.72
2023-03-04T12:09:41.064Z,11.73
2023-03-04T12:10:41.247Z,11.78
2023-03-04T12:11:41.428Z,11.87
2023-03-04T12:12:41.595Z,11.97
2023-03-04T12:13:41.777Z,12.00
2023-03-04T12:14:41.957Z,12.06
2023-03-04T12:15:42.169Z,12.10
2023-03-04T12:16:42.347Z,12.20
2023-03-04T12:17:42.483Z,12.25
2023-03-04T12:18:42.654Z,12.29
2023-03-04T12:19:42.833Z,12.31
2023-03-04T12:20:43.051Z,12.32
2023-03-04T12:21:43.299Z,12.29
2023-03-04T12:22:43.374Z,12.25
2023-03-04T12:23:43.529Z,12.24
2023-03-04T12:24:43.764Z,12.24
2023-03-04T12:25:43.886Z,12.24
2023-03-04T12:26:44.077Z,12.24
2023-03-04T12:27:44.287Z,12.21
2023-03-04T12:28:44.406Z,12.12
2023-03-04T12:29:44.606Z,12.09
2023-03-04T12:30:44.832Z,11.99
2023-03-04T12:31:44.958Z,11.97
2023-03-04T12:32:45.155Z,11.91
2023-03-04T12:33:45.298Z,11.87
2023-03-04T12:34:45.492Z,11.84
2023-03-04T12:35:45.655Z,11.80
2023-03-04T12:36:45.822Z,11.80
2023-03-04T12:37:46.011Z,11.83
2023-03-04T12:38:46.181Z,11.86
2023-03-04T12:39:46.349Z,11.91
2023-03-04T12:40:46.532Z,11.95
2023-03-04T12:41:46.714Z,11.99
2023-03-04T12:42:46.886Z,12.03
2023-03-04T12:43:47.063Z,12.09
2023-03-04T12:44:47.264Z,12.20
2023-03-04T12:45:47.439Z,12.25
2023-03-04T12:46:47.716Z,12.32
2023-03-04T12:47:47.775Z,12.37
2023-03-04T12:48:48.005Z,12.39
2023-03-04T12:49:48.163Z,12.45
2023-03-04T12:50:48.334Z,12.49
2023-03-04T12:51:48.594Z,12.57
2023-03-04T12:52:48.674Z,12.60
2023-03-04T12:53:48.833Z,12.57
2023-03-04T12:54:48.996Z,12.55
2023-03-04T12:55:49.168Z,12.46
2023-03-04T12:56:49.376Z,12.46
2023-03-04T12:57:49.532Z,12.47
2023-03-04T12:58:49.777Z,12.49
2023-03-04T12:59:49.867Z,12.50
2023-03-04T13:00:50.046Z,12.54
2023-03-04T13:01:50.274Z,12.57
2023-03-04T13:02:50.475Z,12.49
2023-03-04T13:03:50.659Z,12.49
2023-03-04T13:04:50.752Z,12.49
2023-03-04T13:05:50.915Z,12.47
2023-03-04T13:06:51.130Z,12.49
2023-03-04T13:07:51.264Z,12.50
2023-03-04T13:08:51.437Z,12.47